Time;durP1;ratioP1;P1;durP2;ratioP2;P2;SDS_P1;SDS_P2;PMS_P1;PMS_P2;Temp;Humidity;BMP_temperature;BMP_pressure;BME280_temperature;BME280_humidity;BME280_pressure;Samples;Min_cycle;Max_cycle;Signal;HPM_P1;HPM_P2
2021/09/23 00:02:34;;;;;;;;;;;;;;;7.56;84.06;97618.64;116989;1177;68519;-72
2021/09/23 00:05:05;;;;;;;;;;;;;;;7.56;84.37;97617.58;116858;1179;67614;-69
2021/09/23 00:07:34;;;;;;;;;;;;;;;7.61;83.71;97615.24;116944;1178;59545;-71
2021/09/23 00:10:04;;;;;;;;;;;;;;;7.62;83.46;97612.91;116982;1177;59541;-69
2021/09/23 00:12:33;;;;;;;;;;;;;;;7.66;83.17;97617.00;117023;1177;70610;-73
2021/09/23 00:15:04;;;;;;;;;;;;;;;7.61;83.37;97615.89;116885;1179;68587;-72
2021/09/23 00:17:34;;;;;;;;;;;;;;;7.62;83.29;97615.88;116934;1177;69248;-71
2021/09/23 00:20:04;;;;;;;;;;;;;;;7.63;83.28;97615.67;117098;1177;59539;-73
2021/09/23 00:22:33;;;;;;;;;;;;;;;7.66;82.91;97616.52;117131;1177;59557;-73
2021/09/23 00:25:02;;;;;;;;;;;;;;;7.64;83.06;97614.34;117109;1177;69505;-71
2021/09/23 00:27:32;;;;;;;;;;;;;;;7.63;83.02;97618.42;117032;1177;68445;-73
2021/09/23 00:30:01;;;;;;;;;;;;;;;7.63;82.70;97618.05;116987;1177;68292;-71
2021/09/23 00:32:30;;;;;;;;;;;;;;;7.68;82.48;97618.84;116972;1177;59565;-70
2021/09/23 00:35:00;;;;;;;;;;;;;;;7.71;82.53;97623.70;116907;1179;59519;-70
2021/09/23 00:37:29;;;;;;;;;;;;;;;7.71;82.54;97625.96;117055;1177;71460;-70
2021/09/23 00:39:58;;;;;;;;;;;;;;;7.71;82.39;97628.06;116710;1179;69040;-71
2021/09/23 00:42:38;;;;;;;;;;;;;;;7.72;82.44;97626.77;116987;1177;69397;-72
2021/09/23 00:45:15;;;;;;;;;;;;;;;7.73;82.39;97627.41;117007;1177;59490;-72
2021/09/23 00:47:45;;;;;;;;;;;;;;;7.73;82.26;97625.48;117049;1177;59513;-71
2021/09/23 00:50:16;;;;;;;;;;;;;;;7.72;82.26;97628.30;117030;1177;71379;-70
2021/09/23 00:52:46;;;;;;;;;;;;;;;7.73;82.24;97622.91;116996;1178;68356;-72
2021/09/23 00:55:18;;;;;;;;;;;;;;;7.74;82.16;97625.29;116999;1177;69261;-73
2021/09/23 00:57:49;;;;;;;;;;;;;;;7.73;82.01;97627.56;116946;1177;59558;-72
2021/09/23 01:00:22;;;;;;;;;;;;;;;7.69;82.27;97624.86;117019;1177;59523;-73
2021/09/23 01:03:02;;;;;;;;;;;;;;;7.68;82.21;97626.48;116994;1177;71369;-71
2021/09/23 01:05:32;;;;;;;;;;;;;;;7.69;82.42;97624.33;117043;1177;68479;-71
2021/09/23 01:08:02;;;;;;;;;;;;;;;7.67;82.28;97622.54;116874;1177;69057;-72
2021/09/23 01:10:32;;;;;;;;;;;;;;;7.65;82.20;97621.24;117080;1177;59518;-71
2021/09/23 01:13:03;;;;;;;;;;;;;;;7.64;82.21;97623.71;117072;1177;59532;-74
2021/09/23 01:15:55;;;;;;;;;;;;;;;7.63;82.35;97623.27;116961;1177;70408;-72
2021/09/23 01:18:54;;;;;;;;;;;;;;;7.64;81.91;97620.46;116898;1177;68446;-70
2021/09/23 01:21:27;;;;;;;;;;;;;;;7.61;82.09;97621.64;116980;1177;69233;-73
2021/09/23 01:23:58;;;;;;;;;;;;;;;7.57;82.09;97624.45;117055;1177;59477;-72
2021/09/23 01:26:29;;;;;;;;;;;;;;;7.55;81.91;97621.98;117022;1177;59565;-70
2021/09/23 01:29:32;;;;;;;;;;;;;;;7.51;82.19;97623.27;116984;1177;70402;-71
2021/09/23 01:32:06;;;;;;;;;;;;;;;7.47;82.01;97620.34;117036;1177;68284;-72
2021/09/23 01:34:39;;;;;;;;;;;;;;;7.45;82.15;97622.09;116918;1177;68180;-71
2021/09/23 01:37:21;;;;;;;;;;;;;;;7.43;81.84;97626.70;116992;1177;59535;-72
2021/09/23 01:39:53;;;;;;;;;;;;;;;7.41;81.87;97629.24;117093;1177;59526;-71
2021/09/23 01:42:26;;;;;;;;;;;;;;;7.40;81.89;97630.98;116853;1178;71345;-73
2021/09/23 01:44:55;;;;;;;;;;;;;;;7.41;81.94;97631.66;116987;1178;69136;-71
2021/09/23 01:47:25;;;;;;;;;;;;;;;7.36;82.13;97632.48;116977;1177;69275;-71
2021/09/23 01:49:57;;;;;;;;;;;;;;;7.33;81.99;97638.36;116873;1177;59564;-70
2021/09/23 01:52:27;;;;;;;;;;;;;;;7.31;81.94;97637.39;117089;1177;59481;-70
2021/09/23 01:55:13;;;;;;;;;;;;;;;7.28;81.94;97641.91;117018;1177;71377;-71
2021/09/23 01:57:44;;;;;;;;;;;;;;;7.27;81.95;97644.75;117054;1177;68680;-70
2021/09/23 02:00:15;;;;;;;;;;;;;;;7.28;81.94;97643.30;116792;1179;67583;-67
2021/09/23 02:02:48;;;;;;;;;;;;;;;7.25;82.21;97637.95;117144;1177;59558;-70
2021/09/23 02:05:31;;;;;;;;;;;;;;;7.24;82.06;97637.83;117031;1177;59490;-73
2021/09/23 02:08:00;;;;;;;;;;;;;;;7.22;81.99;97634.27;116903;1179;71353;-70
2021/09/23 02:10:30;;;;;;;;;;;;;;;7.20;82.32;97632.15;117095;1177;69187;-70
2021/09/23 02:12:59;;;;;;;;;;;;;;;7.19;82.09;97630.98;117041;1177;69199;-71
2021/09/23 02:15:29;;;;;;;;;;;;;;;7.16;82.10;97628.70;116982;1177;59472;-71
2021/09/23 02:17:58;;;;;;;;;;;;;;;7.09;82.68;97629.92;117036;1177;59539;-71
2021/09/23 02:20:30;;;;;;;;;;;;;;;7.10;82.28;97633.17;117097;1177;70418;-74
2021/09/23 02:22:59;;;;;;;;;;;;;;;7.10;82.10;97634.55;117062;1177;68374;-71
2021/09/23 02:25:33;;;;;;;;;;;;;;;7.10;82.11;97636.99;116955;1177;69262;-73
2021/09/23 02:28:02;;;;;;;;;;;;;;;7.08;82.32;97635.02;117009;1177;59450;-72
2021/09/23 02:30:31;;;;;;;;;;;;;;;7.07;82.63;97636.30;117047;1177;59519;-71
2021/09/23 02:33:01;;;;;;;;;;;;;;;7.07;82.17;97637.16;116946;1177;70385;-71
2021/09/23 02:35:31;;;;;;;;;;;;;;;7.05;82.54;97638.13;117046;1178;69198;-71
2021/09/23 02:38:00;;;;;;;;;;;;;;;7.06;82.40;97637.71;117088;1178;69097;-72
2021/09/23 02:40:29;;;;;;;;;;;;;;;7.05;82.44;97639.72;116992;1177;59610;-71
2021/09/23 02:42:58;;;;;;;;;;;;;;;7.05;82.47;97642.27;117006;1178;59508;-72
2021/09/23 02:45:29;;;;;;;;;;;;;;;7.05;82.50;97643.34;117046;1177;70624;-70
2021/09/23 02:47:58;;;;;;;;;;;;;;;7.06;82.63;97641.89;117040;1178;68184;-70
2021/09/23 02:50:28;;;;;;;;;;;;;;;7.03;82.58;97642.61;116977;1178;68515;-71
2021/09/23 02:52:57;;;;;;;;;;;;;;;7.00;82.54;97643.09;116945;1177;59621;-71
2021/09/23 02:55:27;;;;;;;;;;;;;;;6.98;82.82;97644.78;116886;1177;59537;-71
2021/09/23 02:57:57;;;;;;;;;;;;;;;6.98;82.68;97643.92;116985;1177;70463;-73
2021/09/23 03:00:26;;;;;;;;;;;;;;;6.98;82.77;97646.52;116978;1178;69028;-71
2021/09/23 03:02:55;;;;;;;;;;;;;;;6.96;82.72;97649.41;116689;1179;68675;-71
2021/09/23 03:05:25;;;;;;;;;;;;;;;6.94;82.69;97655.55;116856;1179;59579;-73
2021/09/23 03:07:54;;;;;;;;;;;;;;;6.93;82.76;97652.14;116991;1178;59542;-72
2021/09/23 03:10:28;;;;;;;;;;;;;;;6.92;82.68;97653.29;116977;1179;70475;-72
2021/09/23 03:13:13;;;;;;;;;;;;;;;6.92;82.86;97654.27;116992;1177;68534;-72
2021/09/23 03:15:47;;;;;;;;;;;;;;;6.91;82.85;97654.67;116984;1177;69260;-72
2021/09/23 03:18:17;;;;;;;;;;;;;;;6.92;82.80;97655.69;117099;1177;59526;-71
2021/09/23 03:20:46;;;;;;;;;;;;;;;6.87;82.77;97656.98;116970;1179;59478;-71
2021/09/23 03:23:16;;;;;;;;;;;;;;;6.85;82.74;97654.13;116867;1177;71475;-73
2021/09/23 03:25:45;;;;;;;;;;;;;;;6.82;82.59;97656.06;116804;1179;68108;-71
2021/09/23 03:28:14;;;;;;;;;;;;;;;6.80;82.59;97657.34;116917;1177;68438;-72
2021/09/23 03:30:44;;;;;;;;;;;;;;;6.79;82.59;97658.78;117025;1177;59634;-69
2021/09/23 03:33:13;;;;;;;;;;;;;;;6.78;82.63;97664.94;117000;1177;59464;-73
2021/09/23 03:35:42;;;;;;;;;;;;;;;6.76;82.51;97667.46;116996;1177;70435;-70
2021/09/23 03:38:19;;;;;;;;;;;;;;;6.76;82.52;97667.13;117026;1177;70182;-71
2021/09/23 03:40:56;;;;;;;;;;;;;;;6.76;82.44;97667.60;116935;1178;69158;-71
2021/09/23 03:43:33;;;;;;;;;;;;;;;6.73;82.37;97666.05;116965;1177;59561;-71
2021/09/23 03:46:05;;;;;;;;;;;;;;;6.72;82.28;97663.66;116680;1178;59526;-69
2021/09/23 03:48:34;;;;;;;;;;;;;;;6.72;82.25;97664.72;116980;1177;70432;-73
2021/09/23 03:51:03;;;;;;;;;;;;;;;6.72;82.36;97661.96;116989;1177;69321;-71
2021/09/23 03:53:38;;;;;;;;;;;;;;;6.70;82.30;97664.52;116875;1178;69368;-70
2021/09/23 03:56:12;;;;;;;;;;;;;;;6.69;82.08;97665.40;116971;1177;59502;-70
2021/09/23 03:58:46;;;;;;;;;;;;;;;6.65;82.22;97660.42;116857;1177;59961;-71
2021/09/23 04:01:15;;;;;;;;;;;;;;;6.64;82.31;97659.23;116871;1178;71468;-70
2021/09/23 04:03:45;;;;;;;;;;;;;;;6.63;82.43;97660.18;117012;1177;69158;-70
2021/09/23 04:06:15;;;;;;;;;;;;;;;6.56;82.19;97660.52;116852;1178;68490;-71
2021/09/23 04:08:45;;;;;;;;;;;;;;;6.57;82.28;97661.89;116918;1177;59504;-72
2021/09/23 04:11:21;;;;;;;;;;;;;;;6.51;82.16;97666.14;116913;1179;59584;-72
2021/09/23 04:13:59;;;;;;;;;;;;;;;6.51;82.15;97663.73;116796;1179;71184;-71
2021/09/23 04:16:29;;;;;;;;;;;;;;;6.53;82.33;97666.95;116869;1179;69223;-71
2021/09/23 04:18:58;;;;;;;;;;;;;;;6.50;82.27;97666.58;116857;1177;68279;-70
2021/09/23 04:21:27;;;;;;;;;;;;;;;6.50;82.48;97665.15;116882;1179;59558;-70
2021/09/23 04:23:57;;;;;;;;;;;;;;;6.50;82.42;97672.60;117009;1177;59523;-71
2021/09/23 04:26:26;;;;;;;;;;;;;;;6.50;82.40;97675.95;116745;1178;71355;-68
2021/09/23 04:28:55;;;;;;;;;;;;;;;6.50;82.38;97681.10;116921;1178;68447;-72
2021/09/23 04:31:24;;;;;;;;;;;;;;;6.49;82.38;97682.04;117003;1178;68408;-72
2021/09/23 04:33:54;;;;;;;;;;;;;;;6.48;82.15;97682.41;116863;1179;59494;-71
2021/09/23 04:36:22;;;;;;;;;;;;;;;6.42;82.11;97685.68;116731;1177;59519;-71
2021/09/23 04:38:52;;;;;;;;;;;;;;;6.44;82.12;97690.80;116933;1178;71250;-72
2021/09/23 04:41:21;;;;;;;;;;;;;;;6.45;82.12;97693.52;116910;1177;67611;-71
2021/09/23 04:43:49;;;;;;;;;;;;;;;6.44;82.04;97701.15;116918;1178;68245;-72
2021/09/23 04:46:22;;;;;;;;;;;;;;;6.43;81.98;97696.21;116852;1179;59552;-70
2021/09/23 04:48:56;;;;;;;;;;;;;;;6.42;81.96;97700.40;117053;1177;59587;-70
2021/09/23 04:51:26;;;;;;;;;;;;;;;6.45;81.90;97695.56;117029;1179;71277;-71
2021/09/23 04:53:56;;;;;;;;;;;;;;;6.46;81.85;97693.80;116984;1178;69081;-74
2021/09/23 04:56:25;;;;;;;;;;;;;;;6.45;81.69;97696.75;117066;1177;68652;-70
2021/09/23 04:58:54;;;;;;;;;;;;;;;6.45;81.65;97698.36;116916;1179;59532;-70
2021/09/23 05:01:26;;;;;;;;;;;;;;;6.45;81.77;97697.48;116983;1179;59908;-70
2021/09/23 05:03:56;;;;;;;;;;;;;;;6.43;81.53;97698.10;117019;1177;71028;-71
2021/09/23 05:06:25;;;;;;;;;;;;;;;6.44;81.58;97709.63;117026;1179;68318;-69
2021/09/23 05:08:59;;;;;;;;;;;;;;;6.46;81.60;97706.41;117020;1179;69378;-71
2021/09/23 05:11:29;;;;;;;;;;;;;;;6.44;81.45;97710.02;116985;1178;59520;-72
2021/09/23 05:13:58;;;;;;;;;;;;;;;6.45;81.44;97712.90;117048;1177;59536;-68
2021/09/23 05:16:28;;;;;;;;;;;;;;;6.40;80.86;97719.90;117083;1177;72035;-70
2021/09/23 05:18:58;;;;;;;;;;;;;;;6.45;81.14;97724.45;117060;1177;68273;-71
2021/09/23 05:21:27;;;;;;;;;;;;;;;6.49;81.16;97737.11;117080;1177;69258;-72
2021/09/23 05:24:04;;;;;;;;;;;;;;;6.53;81.19;97734.77;116968;1178;59512;-72
2021/09/23 05:26:33;;;;;;;;;;;;;;;6.57;81.19;97733.38;117091;1177;59535;-71
2021/09/23 05:29:03;;;;;;;;;;;;;;;6.63;80.98;97729.27;117005;1177;69947;-72
2021/09/23 05:31:31;;;;;;;;;;;;;;;6.66;80.76;97724.14;117016;1177;67610;-72
2021/09/23 05:34:00;;;;;;;;;;;;;;;6.66;80.79;97727.91;117026;1177;68519;-72
2021/09/23 05:36:29;;;;;;;;;;;;;;;6.70;80.67;97727.90;117005;1177;59508;-70
2021/09/23 05:39:03;;;;;;;;;;;;;;;6.72;80.45;97725.52;116950;1179;59510;-72
2021/09/23 05:41:33;;;;;;;;;;;;;;;6.75;80.51;97730.23;116914;1178;71288;-70
2021/09/23 05:44:03;;;;;;;;;;;;;;;6.78;79.93;97730.39;116982;1177;68397;-71
2021/09/23 05:46:32;;;;;;;;;;;;;;;6.82;80.03;97736.39;116949;1177;70057;-71
2021/09/23 05:49:02;;;;;;;;;;;;;;;6.84;79.80;97730.40;117005;1177;59878;-71
2021/09/23 05:51:31;;;;;;;;;;;;;;;6.82;79.51;97730.72;117008;1177;59526;-71
2021/09/23 05:54:00;;;;;;;;;;;;;;;6.84;79.30;97731.63;117021;1177;70394;-72
2021/09/23 05:56:29;;;;;;;;;;;;;;;6.87;79.39;97729.04;116961;1177;69300;-73
2021/09/23 05:58:58;;;;;;;;;;;;;;;6.92;79.53;97726.89;116901;1178;68502;-71
2021/09/23 06:01:28;;;;;;;;;;;;;;;6.97;79.60;97731.64;116994;1177;59539;-70
2021/09/23 06:03:57;;;;;;;;;;;;;;;7.00;79.46;97739.28;116928;1177;59583;-69
2021/09/23 06:06:27;;;;;;;;;;;;;;;7.04;79.61;97745.64;116919;1177;71963;-70
2021/09/23 06:08:55;;;;;;;;;;;;;;;7.11;79.57;97748.39;116925;1178;69270;-70
2021/09/23 06:11:24;;;;;;;;;;;;;;;7.13;78.16;97750.55;117030;1177;68225;-70
2021/09/23 06:13:53;;;;;;;;;;;;;;;7.19;78.73;97753.86;117048;1177;59535;-71
2021/09/23 06:16:22;;;;;;;;;;;;;;;7.26;78.10;97762.52;117010;1177;59493;-68
2021/09/23 06:18:51;;;;;;;;;;;;;;;7.32;78.37;97761.14;117004;1177;71182;-72
2021/09/23 06:21:20;;;;;;;;;;;;;;;7.36;78.45;97761.09;117074;1177;68478;-72
2021/09/23 06:23:49;;;;;;;;;;;;;;;7.44;78.55;97755.48;117024;1177;69145;-70
2021/09/23 06:26:19;;;;;;;;;;;;;;;7.46;77.22;97756.93;116896;1179;59558;-72
2021/09/23 06:28:48;;;;;;;;;;;;;;;7.44;77.03;97755.65;117031;1176;59520;-72
2021/09/23 06:31:17;;;;;;;;;;;;;;;7.50;77.90;97759.10;117004;1177;71497;-69
2021/09/23 06:33:48;;;;;;;;;;;;;;;7.58;78.45;97762.64;117023;1177;68807;-70
2021/09/23 06:36:17;;;;;;;;;;;;;;;7.64;76.94;97763.52;116894;1179;69315;-73
2021/09/23 06:38:46;;;;;;;;;;;;;;;7.70;77.14;97765.48;117076;1177;59545;-71
2021/09/23 06:41:15;;;;;;;;;;;;;;;7.76;77.41;97764.98;117028;1177;59499;-70
2021/09/23 06:43:45;;;;;;;;;;;;;;;7.82;76.70;97766.74;117072;1177;71281;-73
2021/09/23 06:46:13;;;;;;;;;;;;;;;7.91;77.25;97766.92;117056;1177;69496;-70
2021/09/23 06:48:43;;;;;;;;;;;;;;;7.97;75.76;97758.59;117004;1177;69281;-73
2021/09/23 06:51:11;;;;;;;;;;;;;;;8.07;76.68;97756.60;117035;1177;59452;-73
2021/09/23 06:53:49;;;;;;;;;;;;;;;8.18;75.40;97760.17;117036;1177;59506;-70
2021/09/23 06:56:18;;;;;;;;;;;;;;;8.27;75.52;97759.80;116989;1177;70804;-70
2021/09/23 06:58:47;;;;;;;;;;;;;;;8.38;75.61;97756.94;117015;1177;69001;-70
2021/09/23 07:01:30;;;;;;;;;;;;;;;8.48;75.30;97766.80;116987;1177;69423;-72
2021/09/23 07:04:18;;;;;;;;;;;;;;;8.59;75.88;97769.94;117018;1177;59496;-72
2021/09/23 07:07:05;;;;;;;;;;;;;;;8.67;74.34;97774.02;117047;1177;59565;-70
2021/09/23 07:09:37;;;;;;;;;;;;;;;8.72;74.31;97778.43;117040;1177;70464;-72
2021/09/23 07:12:13;;;;;;;;;;;;;;;8.72;73.67;97776.67;117019;1177;68574;-72
2021/09/23 07:14:47;;;;;;;;;;;;;;;8.79;74.47;97781.30;116919;1177;69352;-74
2021/09/23 07:17:17;;;;;;;;;;;;;;;8.85;73.19;97781.29;117037;1177;59524;-75
2021/09/23 07:19:45;;;;;;;;;;;;;;;8.85;73.38;97784.74;117019;1177;59517;-72
2021/09/23 07:22:15;;;;;;;;;;;;;;;8.90;73.14;97789.63;116884;1177;70953;-70
2021/09/23 07:24:45;;;;;;;;;;;;;;;8.84;72.12;97789.50;117009;1177;69340;-73
2021/09/23 07:27:14;;;;;;;;;;;;;;;8.84;72.50;97785.68;116945;1178;69382;-72
2021/09/23 07:29:43;;;;;;;;;;;;;;;8.87;72.23;97784.80;116994;1177;59547;-71
2021/09/23 07:32:12;;;;;;;;;;;;;;;8.86;71.85;97792.50;116996;1177;59449;-72
2021/09/23 07:34:42;;;;;;;;;;;;;;;8.87;72.54;97796.92;117035;1177;71728;-73
2021/09/23 07:37:10;;;;;;;;;;;;;;;8.96;72.87;97800.10;117050;1177;69189;-71
2021/09/23 07:39:39;;;;;;;;;;;;;;;9.08;72.62;97792.39;116942;1179;68484;-71
2021/09/23 07:42:08;;;;;;;;;;;;;;;9.21;72.36;97795.77;117056;1177;59557;-70
2021/09/23 07:44:40;;;;;;;;;;;;;;;9.33;71.36;97799.36;116942;1177;59506;-72
2021/09/23 07:47:09;;;;;;;;;;;;;;;9.40;71.29;97800.71;116831;1179;71420;-68
2021/09/23 07:49:38;;;;;;;;;;;;;;;9.52;71.57;97804.31;116860;1178;69168;-70
2021/09/23 07:52:06;;;;;;;;;;;;;;;9.61;71.25;97805.27;116902;1179;68569;-71
2021/09/23 07:54:35;;;;;;;;;;;;;;;9.70;70.27;97803.69;116968;1177;59562;-72
2021/09/23 07:57:04;;;;;;;;;;;;;;;9.79;70.12;97806.08;116785;1178;59570;-74
2021/09/23 07:59:33;;;;;;;;;;;;;;;9.89;70.26;97808.73;116966;1177;71396;-72
2021/09/23 08:02:04;;;;;;;;;;;;;;;9.96;69.19;97811.63;117014;1177;69379;-72
2021/09/23 08:04:33;;;;;;;;;;;;;;;9.92;67.90;97812.92;116966;1177;68957;-71
2021/09/23 08:07:02;;;;;;;;;;;;;;;9.87;67.71;97818.42;117030;1177;59539;-71
2021/09/23 08:09:31;;;;;;;;;;;;;;;9.86;68.90;97816.10;116990;1177;59491;-73
2021/09/23 08:12:00;;;;;;;;;;;;;;;9.93;69.29;97814.25;116973;1177;70774;-71
2021/09/23 08:14:29;;;;;;;;;;;;;;;10.01;69.16;97810.61;117033;1177;68488;-72
2021/09/23 08:17:18;;;;;;;;;;;;;;;10.13;69.43;97813.83;117006;1177;68293;-72
2021/09/23 08:20:07;;;;;;;;;;;;;;;10.26;68.84;97811.95;116857;1179;59603;-73
2021/09/23 08:22:40;;;;;;;;;;;;;;;10.37;68.52;97803.75;117005;1178;59558;-72
2021/09/23 08:25:09;;;;;;;;;;;;;;;10.49;68.74;97803.13;116956;1177;71229;-71
2021/09/23 08:27:45;;;;;;;;;;;;;;;10.65;68.65;97804.33;117000;1177;69276;-73
2021/09/23 08:30:14;;;;;;;;;;;;;;;10.76;65.79;97802.57;116819;1179;69296;-71
2021/09/23 08:32:44;;;;;;;;;;;;;;;10.85;66.15;97810.29;117021;1176;59932;-72
2021/09/23 08:35:12;;;;;;;;;;;;;;;10.92;64.59;97803.56;116915;1178;59538;-73
2021/09/23 08:37:41;;;;;;;;;;;;;;;10.95;65.14;97800.40;116989;1177;71427;-71
2021/09/23 08:40:12;;;;;;;;;;;;;;;11.05;66.10;97800.28;116981;1177;69219;-71
2021/09/23 08:42:43;;;;;;;;;;;;;;;11.24;65.71;97800.14;117053;1177;69317;-73
2021/09/23 08:45:14;;;;;;;;;;;;;;;11.31;62.45;97794.31;116793;1177;59552;-73
2021/09/23 08:47:45;;;;;;;;;;;;;;;11.26;62.68;97790.45;116677;1179;59580;-72
2021/09/23 08:50:17;;;;;;;;;;;;;;;11.32;63.45;97787.05;116604;1181;72713;-72
2021/09/23 08:52:50;;;;;;;;;;;;;;;11.46;64.10;97787.61;116653;1179;69992;-72
2021/09/23 08:55:32;;;;;;;;;;;;;;;11.71;63.78;97790.95;116623;1177;68439;-73
2021/09/23 08:58:09;;;;;;;;;;;;;;;11.96;62.40;97786.02;116645;1177;59731;-72
2021/09/23 09:00:58;;;;;;;;;;;;;;;12.22;62.79;97790.23;116730;1178;59484;-72
2021/09/23 09:03:32;;;;;;;;;;;;;;;12.55;61.13;97790.95;116971;1178;71374;-73
2021/09/23 09:06:15;;;;;;;;;;;;;;;12.78;59.08;97782.04;116928;1178;69392;-73
2021/09/23 09:09:16;;;;;;;;;;;;;;;12.91;58.71;97784.71;116853;1177;68382;-72
2021/09/23 09:11:50;;;;;;;;;;;;;;;13.14;59.51;97783.44;116909;1177;59526;-73
2021/09/23 09:14:24;;;;;;;;;;;;;;;13.36;58.98;97779.30;116936;1177;59536;-72
2021/09/23 09:16:59;;;;;;;;;;;;;;;13.54;58.28;97778.29;117022;1177;70598;-72
2021/09/23 09:19:46;;;;;;;;;;;;;;;13.63;58.76;97776.15;117045;1177;69578;-71
2021/09/23 09:22:16;;;;;;;;;;;;;;;13.73;57.00;97773.44;116916;1179;69332;-70
2021/09/23 09:25:08;;;;;;;;;;;;;;;13.72;56.34;97776.52;116980;1177;59612;-71
2021/09/23 09:27:43;;;;;;;;;;;;;;;13.78;56.03;97771.67;117034;1178;59552;-72
2021/09/23 09:30:13;;;;;;;;;;;;;;;13.51;53.86;97771.81;117063;1178;71395;-72
2021/09/23 09:32:49;;;;;;;;;;;;;;;13.43;56.04;97776.65;116984;1178;69176;-71
2021/09/23 09:35:30;;;;;;;;;;;;;;;13.41;56.33;97777.86;116982;1177;70120;-72
2021/09/23 09:38:01;;;;;;;;;;;;;;;13.33;56.36;97778.38;116869;1178;59491;-72
2021/09/23 09:40:35;;;;;;;;;;;;;;;13.21;56.48;97778.41;116840;1179;59523;-72
2021/09/23 09:43:13;;;;;;;;;;;;;;;13.02;56.31;97778.45;116570;1179;72371;-72
2021/09/23 09:45:47;;;;;;;;;;;;;;;12.83;56.98;97778.11;116685;1179;69304;-72
2021/09/23 09:48:31;;;;;;;;;;;;;;;12.72;57.54;97780.19;116829;1179;69433;-73
2021/09/23 09:51:05;;;;;;;;;;;;;;;12.66;56.82;97779.55;116700;1179;59558;-73
2021/09/23 09:53:41;;;;;;;;;;;;;;;12.57;56.75;97779.25;116751;1180;59589;-73
2021/09/23 09:56:24;;;;;;;;;;;;;;;12.56;57.35;97779.85;116615;1180;70745;-72
2021/09/23 09:59:05;;;;;;;;;;;;;;;12.60;56.24;97778.17;116900;1178;69347;-70
2021/09/23 10:01:40;;;;;;;;;;;;;;;12.58;55.78;97778.98;116817;1179;69187;-71
2021/09/23 10:04:13;;;;;;;;;;;;;;;12.63;56.33;97779.81;116647;1178;59514;-73
2021/09/23 10:06:44;;;;;;;;;;;;;;;12.58;56.31;97781.29;116967;1177;59569;-72
2021/09/23 10:09:20;;;;;;;;;;;;;;;12.37;56.60;97784.77;116810;1178;72673;-71
2021/09/23 10:11:55;;;;;;;;;;;;;;;12.39;57.71;97788.97;116552;1179;69222;-72
2021/09/23 10:14:26;;;;;;;;;;;;;;;12.55;58.02;97781.63;116933;1177;68438;-70
2021/09/23 10:16:56;;;;;;;;;;;;;;;12.75;57.29;97782.28;116921;1177;59513;-71
2021/09/23 10:19:27;;;;;;;;;;;;;;;12.88;56.58;97784.80;116637;1179;59589;-72
2021/09/23 10:21:57;;;;;;;;;;;;;;;12.91;57.15;97784.21;116942;1179;70396;-71
2021/09/23 10:24:26;;;;;;;;;;;;;;;12.93;56.16;97779.13;116887;1177;70073;-72
2021/09/23 10:26:59;;;;;;;;;;;;;;;13.00;57.18;97776.30;116928;1177;69033;-72
2021/09/23 10:29:30;;;;;;;;;;;;;;;13.02;56.93;97774.27;116907;1177;59504;-72
2021/09/23 10:32:02;;;;;;;;;;;;;;;13.01;57.06;97780.12;116922;1177;59552;-72
2021/09/23 10:34:35;;;;;;;;;;;;;;;12.97;56.31;97774.58;116927;1177;71487;-72
2021/09/23 10:37:06;;;;;;;;;;;;;;;12.96;56.14;97771.36;116637;1178;68452;-72
2021/09/23 10:39:38;;;;;;;;;;;;;;;13.02;55.84;97768.63;116784;1179;68672;-72
2021/09/23 10:42:13;;;;;;;;;;;;;;;13.10;56.24;97767.68;116906;1178;59583;-71
2021/09/23 10:44:44;;;;;;;;;;;;;;;13.02;55.53;97768.48;116938;1179;59510;-72
2021/09/23 10:47:28;;;;;;;;;;;;;;;13.02;55.71;97771.46;116884;1178;70879;-72
2021/09/23 10:49:59;;;;;;;;;;;;;;;13.01;55.61;97765.55;116846;1179;69226;-73
2021/09/23 10:52:34;;;;;;;;;;;;;;;13.07;55.73;97770.18;116840;1178;68616;-72
2021/09/23 10:55:06;;;;;;;;;;;;;;;13.20;55.35;97770.04;116755;1177;59494;-74
2021/09/23 10:57:38;;;;;;;;;;;;;;;13.26;54.84;97768.41;116860;1177;59484;-73
2021/09/23 11:00:16;;;;;;;;;;;;;;;13.20;54.55;97770.89;116914;1177;69576;-72
2021/09/23 11:02:48;;;;;;;;;;;;;;;13.14;54.64;97771.19;116922;1178;69191;-71
2021/09/23 11:05:20;;;;;;;;;;;;;;;13.04;53.87;97768.52;116857;1179;68500;-72
2021/09/23 11:07:51;;;;;;;;;;;;;;;12.77;53.29;97764.77;116903;1177;59488;-73
2021/09/23 11:10:24;;;;;;;;;;;;;;;12.71;54.52;97764.02;116815;1179;59552;-73
2021/09/23 11:13:10;;;;;;;;;;;;;;;12.44;55.12;97764.51;116878;1178;70659;-72
2021/09/23 11:15:41;;;;;;;;;;;;;;;12.44;55.41;97771.85;116694;1177;68754;-71
2021/09/23 11:18:13;;;;;;;;;;;;;;;12.47;54.52;97765.48;116607;1178;68541;-72
2021/09/23 11:20:48;;;;;;;;;;;;;;;12.47;54.46;97759.52;116657;1179;59590;-72
2021/09/23 11:23:37;;;;;;;;;;;;;;;12.41;54.79;97760.11;116771;1178;59539;-72
2021/09/23 11:26:11;;;;;;;;;;;;;;;12.46;54.93;97759.44;116688;1179;70678;-71
2021/09/23 11:28:43;;;;;;;;;;;;;;;12.51;54.20;97756.09;116643;1179;68223;-72
2021/09/23 11:31:15;;;;;;;;;;;;;;;12.51;54.64;97761.48;116941;1177;69352;-72
2021/09/23 11:33:51;;;;;;;;;;;;;;;12.53;54.99;97758.19;117029;1177;59494;-73
2021/09/23 11:36:24;;;;;;;;;;;;;;;12.66;54.84;97755.86;116916;1178;59529;-72
2021/09/23 11:38:57;;;;;;;;;;;;;;;12.73;54.04;97758.63;116890;1178;70932;-73
2021/09/23 11:41:31;;;;;;;;;;;;;;;12.83;53.78;97762.61;116628;1180;68624;-72
2021/09/23 11:44:21;;;;;;;;;;;;;;;12.78;53.98;97760.39;116767;1177;68420;-72
2021/09/23 11:47:01;;;;;;;;;;;;;;;12.85;53.65;97762.95;116763;1180;59543;-73
2021/09/23 11:49:31;;;;;;;;;;;;;;;12.89;54.12;97771.05;116854;1177;59491;-72
2021/09/23 11:52:08;;;;;;;;;;;;;;;12.94;53.81;97769.42;116910;1177;71370;-72
2021/09/23 11:54:47;;;;;;;;;;;;;;;12.92;52.73;97764.89;116632;1180;69135;-72
2021/09/23 11:57:25;;;;;;;;;;;;;;;12.85;53.01;97767.00;116671;1179;67794;-73
2021/09/23 11:59:57;;;;;;;;;;;;;;;12.82;53.97;97764.23;116889;1177;59565;-72
2021/09/23 12:02:26;;;;;;;;;;;;;;;12.91;54.51;97762.67;116945;1177;59504;-71
2021/09/23 12:04:59;;;;;;;;;;;;;;;12.99;53.54;97757.86;116856;1179;71081;-72
2021/09/23 12:07:41;;;;;;;;;;;;;;;13.00;53.64;97758.99;116866;1177;68600;-72
2021/09/23 12:10:15;;;;;;;;;;;;;;;13.05;53.21;97755.27;116666;1178;69099;-72
2021/09/23 12:12:59;;;;;;;;;;;;;;;13.13;53.22;97755.76;116871;1177;59545;-71
2021/09/23 12:15:36;;;;;;;;;;;;;;;13.15;52.87;97750.85;116822;1178;59529;-72
2021/09/23 12:18:10;;;;;;;;;;;;;;;13.20;52.84;97760.76;116665;1179;71452;-72
2021/09/23 12:20:53;;;;;;;;;;;;;;;13.25;53.43;97764.61;116735;1179;69397;-73
2021/09/23 12:23:23;;;;;;;;;;;;;;;13.38;52.97;97771.09;116855;1177;68125;-72
2021/09/23 12:26:11;;;;;;;;;;;;;;;13.45;51.74;97765.50;116878;1177;59554;-71
2021/09/23 12:28:44;;;;;;;;;;;;;;;13.47;51.86;97770.23;116879;1178;59612;-73
2021/09/23 12:31:27;;;;;;;;;;;;;;;13.53;51.76;97766.98;116641;1180;69809;-73
2021/09/23 12:34:00;;;;;;;;;;;;;;;13.53;51.57;97767.50;116823;1179;68272;-72
2021/09/23 12:36:43;;;;;;;;;;;;;;;13.53;52.48;97767.14;116688;1180;68688;-74
2021/09/23 12:39:16;;;;;;;;;;;;;;;13.53;51.30;97760.00;116850;1179;59551;-73
2021/09/23 12:41:53;;;;;;;;;;;;;;;13.29;51.49;97756.59;116825;1177;59526;-73
2021/09/23 12:44:25;;;;;;;;;;;;;;;13.17;52.30;97758.35;116678;1179;71415;-73
2021/09/23 12:47:12;;;;;;;;;;;;;;;13.13;52.55;97761.81;116950;1177;69787;-72
2021/09/23 12:49:50;;;;;;;;;;;;;;;13.12;52.82;97756.98;116651;1179;68393;-72
2021/09/23 12:52:49;;;;;;;;;;;;;;;13.08;52.17;97748.76;116874;1179;59619;-71
2021/09/23 12:55:26;;;;;;;;;;;;;;;13.08;52.22;97744.22;116980;1177;59526;-72
2021/09/23 12:57:58;;;;;;;;;;;;;;;13.11;52.10;97741.00;116786;1179;72094;-73
2021/09/23 13:00:39;;;;;;;;;;;;;;;13.17;52.42;97733.73;116908;1178;69411;-73
2021/09/23 13:03:13;;;;;;;;;;;;;;;13.12;52.21;97734.43;116740;1179;69413;-71
2021/09/23 13:05:49;;;;;;;;;;;;;;;13.14;52.45;97734.48;116902;1179;59570;-72
2021/09/23 13:08:23;;;;;;;;;;;;;;;13.03;52.74;97734.95;116896;1177;59514;-73
2021/09/23 13:11:05;;;;;;;;;;;;;;;12.96;53.42;97735.87;116859;1178;71292;-72
2021/09/23 13:13:43;;;;;;;;;;;;;;;12.94;53.36;97729.52;116894;1177;69190;-72